Time,TemperatureF,DewpointF,PressureIn,WindDirection,WindDirectionDegrees,WindSpeedMPH,WindSpeedGustMPH,Humidity,HourlyPrecipIn,Conditions,Clouds,dailyrainin,SoftwareType,DateUTC
2013-02-28 00:00:00,38.6,38.6,29.63,ESE,104,2.0,11.0,100,0.00,,---,-99.99,VWS V14.01,2013-02-28 05:00:00,
2013-02-28 00:03:00,37.0,37.0,29.63,WSW,239,1.0,1.0,100,0.00,,---,0.00,VWS V14.01,2013-02-28 05:03:00,
2013-02-28 00:04:00,37.0,37.0,29.63,WSW,239,1.0,1.0,100,0.00,,---,0.00,VWS V14.01,2013-02-28 05:04:00,
2013-02-28 00:09:00,37.0,37.0,29.63,West,271,1.0,3.0,100,0.00,,---,0.00,VWS V14.01,2013-02-28 05:09:00,
2013-02-28 00:14:00,37.6,37.6,29.63,East,93,2.0,3.0,100,0.00,,---,0.00,VWS V14.01,2013-02-28 05:14:00,
2013-02-28 00:19:00,37.8,37.8,29.63,East,83,3.0,3.0,100,0.00,,---,0.00,VWS V14.01,2013-02-28 05:19:00,
2013-02-28 00:24:00,37.8,37.8,29.63,NNE,20,0.0,3.0,100,0.00,,---,0.00,VWS V14.01,2013-02-28 05:24:00,
2013-02-28 00:29:00,37.9,37.9,29.63,West,274,0.0,5.0,100,0.00,,---,0.00,VWS V14.01,2013-02-28 05:29:00,
2013-02-28 00:35:00,37.9,37.9,29.63,East,99,2.0,11.0,100,0.00,,---,0.00,VWS V14.01,2013-02-28 05:35:00,
2013-02-28 00:40:00,37.9,37.9,29.63,WSW,250,2.0,11.0,100,0.00,,---,0.00,VWS V14.01,2013-02-28 05:40:00,
2013-02-28 00:45:00,38.0,38.0,29.63,SSW,202,3.0,11.0,100,0.00,,---,0.00,VWS V14.01,2013-02-28 05:45:00,
2013-02-28 00:50:00,38.3,38.3,29.63,WNW,288,1.0,11.0,100,0.00,,---,0.00,VWS V14.01,2013-02-28 05:50:00,
2013-02-28 00:55:00,38.3,38.3,29.63,SSW,208,0.0,11.0,100,0.00,,---,0.00,VWS V14.01,2013-02-28 05:55:00,
2013-02-28 01:00:00,38.6,38.6,29.63,ESE,104,2.0,11.0,100,0.00,,---,0.00,VWS V14.01,2013-02-28 06:00:00,
2013-02-28 01:05:00,38.8,38.8,29.63,West,268,0.0,7.0,100,0.00,,---,0.00,VWS V14.01,2013-02-28 06:05:00,
2013-02-28 01:10:00,38.8,38.8,29.63,NW,304,3.0,7.0,100,0.00,,---,0.00,VWS V14.01,2013-02-28 06:10:00,
2013-02-28 01:15:00,38.9,38.9,29.63,ESE,109,4.0,7.0,100,0.00,,---,0.00,VWS V14.01,2013-02-28 06:15:00,
2013-02-28 01:20:00,38.9,38.9,29.63,SW,215,0.0,7.0,100,0.00,,---,0.00,VWS V14.01,2013-02-28 06:20:00,
2013-02-28 01:25:00,39.1,39.1,29.63,SSW,202,10.0,10.0,100,0.00,,---,0.00,VWS V14.01,2013-02-28 06:25:00,
2013-02-28 01:30:00,39.2,39.2,29.61,ENE,65,0.0,10.0,100,0.00,,---,0.00,VWS V14.01,2013-02-28 06:30:00,
2013-02-28 01:36:00,39.5,39.5,29.61,WSW,251,1.0,10.0,100,0.00,,---,0.00,VWS V14.01,2013-02-28 06:36:00,
2013-02-28 01:41:00,39.3,39.3,29.61,SSW,196,8.0,10.0,100,0.00,,---,0.00,VWS V14.01,2013-02-28 06:41:00,
2013-02-28 01:46:00,39.6,39.6,29.61,SW,232,1.0,10.0,100,0.00,,---,0.00,VWS V14.01,2013-02-28 06:46:00,
2013-02-28 01:51:00,39.5,39.5,29.61,East,82,2.0,11.0,100,0.00,,---,0.00,VWS V14.01,2013-02-28 06:51:00,
2013-02-28 01:56:00,39.5,39.5,29.61,ENE,72,0.0,11.0,100,0.00,,---,0.00,VWS V14.01,2013-02-28 06:56:00,
2013-02-28 02:00:00,40.6,40.6,29.59,ESE,120,0.0,11.0,100,0.00,,---,-99.99,VWS V14.01,2013-02-28 07:00:00,
2013-02-28 02:02:00,39.5,39.5,29.60,SE,130,2.0,2.0,100,0.00,,---,0.00,VWS V14.01,2013-02-28 07:02:00,
2013-02-28 02:07:00,39.6,39.6,29.60,SSE,160,2.0,7.0,100,0.00,,---,0.00,VWS V14.01,2013-02-28 07:07:00,
2013-02-28 02:12:00,39.8,39.8,29.60,SW,216,2.0,11.0,100,0.00,,---,0.00,VWS V14.01,2013-02-28 07:12:00,
2013-02-28 02:17:00,39.9,39.9,29.60,NNE,32,2.0,11.0,100,0.00,,---,0.00,VWS V14.01,2013-02-28 07:17:00,
2013-02-28 02:23:00,39.9,39.9,29.60,SW,234,1.0,11.0,100,0.00,,---,0.00,VWS V14.01,2013-02-28 07:23:00,
2013-02-28 02:28:00,40.1,40.1,29.60,SW,215,3.0,11.0,100,0.00,,---,0.00,VWS V14.01,2013-02-28 07:28:00,
2013-02-28 02:33:00,40.2,40.2,29.60,WSW,243,2.0,11.0,100,0.00,,---,0.00,VWS V14.01,2013-02-28 07:33:00,
2013-02-28 02:38:00,40.6,40.6,29.60,ESE,116,1.0,11.0,100,0.00,,---,0.00,VWS V14.01,2013-02-28 07:38:00,
2013-02-28 02:44:00,40.3,40.3,29.60,SW,230,2.0,11.0,100,0.00,,---,0.00,VWS V14.01,2013-02-28 07:44:00,
2013-02-28 02:49:00,40.5,40.5,29.59,NE,52,0.0,11.0,100,0.00,,---,0.00,VWS V14.01,2013-02-28 07:49:00,
2013-02-28 02:54:00,40.5,40.5,29.59,WSW,240,1.0,11.0,100,0.00,,---,0.00,VWS V14.01,2013-02-28 07:54:00,
2013-02-28 02:59:00,40.5,40.5,29.59,SSW,199,4.0,11.0,100,0.00,,---,0.00,VWS V14.01,2013-02-28 07:59:00,
2013-02-28 03:00:00,41.1,41.1,29.58,SSW,200,0.0,7.0,100,0.00,,---,-99.99,VWS V14.01,2013-02-28 08:00:00,
2013-02-28 03:04:00,40.6,40.6,29.59,NE,51,6.0,6.0,100,0.00,,---,0.00,VWS V14.01,2013-02-28 08:04:00,
2013-02-28 03:09:00,40.6,40.6,29.59,SSW,213,4.0,6.0,100,0.00,,---,0.00,VWS V14.01,2013-02-28 08:09:00,
2013-02-28 03:15:00,41.1,41.1,29.59,NE,56,0.0,6.0,100,0.00,,---,0.00,VWS V14.01,2013-02-28 08:15:00,
2013-02-28 03:20:00,41.1,41.1,29.59,SSE,155,0.0,6.0,100,0.00,,---,0.00,VWS V14.01,2013-02-28 08:20:00,
2013-02-28 03:25:00,40.8,40.8,29.59,East,89,4.0,6.0,100,0.00,,---,0.00,VWS V14.01,2013-02-28 08:25:00,
2013-02-28 03:30:00,40.9,40.9,29.58,South,172,7.0,7.0,100,0.00,,---,0.00,VWS V14.01,2013-02-28 08:30:00,
2013-02-28 03:35:00,40.9,40.9,29.58,SE,137,5.0,7.0,100,0.00,,---,0.00,VWS V14.01,2013-02-28 08:35:00,
2013-02-28 03:40:00,40.9,40.9,29.58,WNW,291,0.0,7.0,100,0.00,,---,0.00,VWS V14.01,2013-02-28 08:40:00,
2013-02-28 03:45:00,40.9,40.9,29.58,SW,216,0.0,7.0,100,0.00,,---,0.00,VWS V14.01,2013-02-28 08:45:00,
2013-02-28 03:50:00,40.9,40.9,29.58,SE,138,6.0,7.0,100,0.00,,---,0.00,VWS V14.01,2013-02-28 08:50:00,
2013-02-28 03:55:00,41.3,41.3,29.58,SW,219,3.0,7.0,100,0.00,,---,0.00,VWS V14.01,2013-02-28 08:55:00,
2013-02-28 04:00:00,41.1,41.1,29.58,SSW,200,0.0,0.0,100,0.00,,---,0.00,VWS V14.01,2013-02-28 09:00:00,
2013-02-28 04:06:00,41.1,41.1,29.58,North,352,0.0,0.0,100,0.00,,---,0.00,VWS V14.01,2013-02-28 09:06:00,
2013-02-28 04:11:00,41.1,41.1,29.58,SW,219,5.0,5.0,100,0.00,,---,0.00,VWS V14.01,2013-02-28 09:11:00,
2013-02-28 04:16:00,41.1,41.1,29.58,SW,232,5.0,5.0,100,0.00,,---,0.00,VWS V14.01,2013-02-28 09:16:00,
2013-02-28 04:21:00,41.2,41.2,29.58,ENE,68,11.0,11.0,100,0.00,,---,0.00,VWS V14.01,2013-02-28 09:21:00,
2013-02-28 04:26:00,41.2,41.2,29.58,SSE,151,7.0,11.0,100,0.00,,---,0.00,VWS V14.01,2013-02-28 09:26:00,
2013-02-28 04:31:00,41.2,41.2,29.58,SSE,160,0.0,11.0,100,0.00,,---,0.00,VWS V14.01,2013-02-28 09:31:00,
2013-02-28 04:36:00,41.2,41.2,29.58,SW,216,5.0,11.0,100,0.00,,---,0.00,VWS V14.01,2013-02-28 09:36:00,
2013-02-28 04:41:00,41.2,41.2,29.58,West,272,0.0,11.0,100,0.00,,---,0.00,VWS V14.01,2013-02-28 09:41:00,
2013-02-28 04:46:00,41.2,41.2,29.57,South,179,8.0,11.0,100,0.00,,---,0.00,VWS V14.01,2013-02-28 09:46:00,
2013-02-28 04:51:00,41.3,41.3,29.57,SE,141,4.0,11.0,100,0.00,,---,0.00,VWS V14.01,2013-02-28 09:51:00,
2013-02-28 04:56:00,41.3,41.3,29.57,SSE,157,6.0,11.0,100,0.00,,---,0.00,VWS V14.01,2013-02-28 09:56:00,
2013-02-28 05:00:00,41.6,41.6,29.57,SSW,203,0.0,6.0,100,0.00,,---,-99.99,VWS V14.01,2013-02-28 10:00:00,
2013-02-28 05:01:00,41.8,41.8,29.58,NE,41,6.0,6.0,100,0.00,,---,0.00,VWS V14.01,2013-02-28 10:01:00,
2013-02-28 05:07:00,41.8,41.8,29.58,NNE,30,3.0,6.0,100,0.00,,---,0.00,VWS V14.01,2013-02-28 10:07:00,
2013-02-28 05:12:00,41.5,41.5,29.58,NNE,23,0.0,6.0,100,0.00,,---,0.00,VWS V14.01,2013-02-28 10:12:00,
2013-02-28 05:17:00,41.3,41.3,29.57,WSW,241,2.0,6.0,100,0.00,,---,0.00,VWS V14.01,2013-02-28 10:17:00,
2013-02-28 05:22:00,41.3,41.3,29.57,South,175,2.0,6.0,100,0.00,,---,0.00,VWS V14.01,2013-02-28 10:22:00,
2013-02-28 05:27:00,41.5,41.5,29.57,East,80,2.0,6.0,100,0.00,,---,0.00,VWS V14.01,2013-02-28 10:27:00,
2013-02-28 05:32:00,41.5,41.5,29.57,SW,232,2.0,6.0,100,0.00,,---,0.00,VWS V14.01,2013-02-28 10:32:00,
2013-02-28 05:37:00,41.5,41.5,29.57,SW,236,0.0,6.0,100,0.00,,---,0.00,VWS V14.01,2013-02-28 10:37:00,
2013-02-28 05:42:00,41.5,41.5,29.57,ESE,120,1.0,6.0,100,0.00,,---,0.00,VWS V14.01,2013-02-28 10:42:00,
2013-02-28 05:47:00,41.6,41.6,29.57,SSE,150,0.0,6.0,100,0.00,,---,0.00,VWS V14.01,2013-02-28 10:47:00,
2013-02-28 05:52:00,41.6,41.6,29.57,ESE,116,2.0,6.0,100,0.00,,---,0.00,VWS V14.01,2013-02-28 10:52:00,
2013-02-28 05:57:00,41.6,41.6,29.57,WSW,254,6.0,6.0,100,0.00,,---,0.00,VWS V14.01,2013-02-28 10:57:00,
2013-02-28 06:00:00,41.6,41.6,29.57,SSW,209,0.0,8.0,100,0.00,,---,-99.99,VWS V14.01,2013-02-28 11:00:00,
2013-02-28 06:02:00,41.6,41.6,29.57,East,79,6.0,8.0,100,0.00,,---,0.00,VWS V14.01,2013-02-28 11:02:00,
2013-02-28 06:07:00,41.6,41.6,29.57,SSW,210,5.0,8.0,100,0.00,,---,0.00,VWS V14.01,2013-02-28 11:07:00,
2013-02-28 06:12:00,41.6,41.6,29.57,SW,215,6.0,8.0,100,0.00,,---,0.00,VWS V14.01,2013-02-28 11:12:00,
2013-02-28 06:17:00,41.6,41.6,29.57,East,100,3.0,8.0,100,0.00,,---,0.00,VWS V14.01,2013-02-28 11:17:00,
2013-02-28 06:22:00,41.5,41.5,29.57,North,353,0.0,8.0,100,0.00,,---,0.00,VWS V14.01,2013-02-28 11:22:00,
2013-02-28 06:27:00,41.5,41.5,29.57,SSW,199,1.0,8.0,100,0.00,,---,0.00,VWS V14.01,2013-02-28 11:27:00,
2013-02-28 06:32:00,41.5,41.5,29.57,SSE,151,0.0,8.0,100,0.00,,---,0.00,VWS V14.01,2013-02-28 11:32:00,
2013-02-28 06:37:00,41.5,41.5,29.57,SW,227,3.0,8.0,100,0.00,,---,0.00,VWS V14.01,2013-02-28 11:37:00,
2013-02-28 06:42:00,41.5,41.5,29.57,NE,45,2.0,8.0,100,0.00,,---,0.00,VWS V14.01,2013-02-28 11:42:00,
2013-02-28 06:47:00,41.5,41.5,29.57,SSE,151,1.0,8.0,100,0.00,,---,0.00,VWS V14.01,2013-02-28 11:47:00,
2013-02-28 06:53:00,41.9,41.9,29.57,WSW,253,1.0,8.0,100,0.00,,---,0.00,VWS V14.01,2013-02-28 11:53:00,
2013-02-28 06:58:00,41.6,41.6,29.57,SSW,209,0.0,8.0,100,0.00,,---,0.00,VWS V14.01,2013-02-28 11:58:00,
2013-02-28 07:00:00,42.3,42.3,29.56,SW,220,2.0,5.0,100,0.00,,---,-99.99,VWS V14.01,2013-02-28 12:00:00,
2013-02-28 07:03:00,41.6,41.6,29.57,SSW,200,3.0,3.0,100,0.00,,---,0.00,VWS V14.01,2013-02-28 12:03:00,
2013-02-28 07:08:00,41.8,41.8,29.57,SE,131,3.0,3.0,100,0.00,,---,0.00,VWS V14.01,2013-02-28 12:08:00,
2013-02-28 07:13:00,42.2,42.2,29.57,West,280,1.0,3.0,100,0.00,,---,0.00,VWS V14.01,2013-02-28 12:13:00,
2013-02-28 07:18:00,41.9,41.9,29.57,SSW,202,4.0,5.0,100,0.00,,---,0.00,VWS V14.01,2013-02-28 12:18:00,
2013-02-28 07:23:00,42.2,42.2,29.57,East,85,1.0,5.0,100,0.00,,---,0.00,VWS V14.01,2013-02-28 12:23:00,
2013-02-28 07:28:00,42.2,42.2,29.57,SW,216,0.0,5.0,100,0.00,,---,0.00,VWS V14.01,2013-02-28 12:28:00,
2013-02-28 07:33:00,42.2,42.2,29.57,SW,222,2.0,5.0,100,0.00,,---,0.00,VWS V14.01,2013-02-28 12:33:00,
2013-02-28 07:38:00,42.2,42.2,29.57,WSW,240,1.0,5.0,100,0.00,,---,0.00,VWS V14.01,2013-02-28 12:38:00,
2013-02-28 07:43:00,42.3,42.3,29.57,SW,219,2.0,5.0,100,0.00,,---,0.00,VWS V14.01,2013-02-28 12:43:00,
2013-02-28 07:48:00,42.3,42.3,29.57,East,92,0.0,5.0,100,0.00,,---,0.00,VWS V14.01,2013-02-28 12:48:00,
2013-02-28 07:53:00,42.1,42.1,29.57,SSW,212,0.0,5.0,100,0.00,,---,0.00,VWS V14.01,2013-02-28 12:53:00,
2013-02-28 07:59:00,42.3,42.3,29.57,NE,41,0.0,5.0,100,0.00,,---,0.00,VWS V14.01,2013-02-28 12:59:00,
2013-02-28 08:00:00,42.8,42.8,29.55,SSE,148,2.0,5.0,100,0.00,,---,-99.99,VWS V14.01,2013-02-28 13:00:00,
2013-02-28 08:04:00,42.2,42.2,29.56,ESE,107,1.0,5.0,100,0.00,,---,0.00,VWS V14.01,2013-02-28 13:04:00,
2013-02-28 08:09:00,42.5,42.5,29.56,ENE,76,0.0,5.0,100,0.00,,---,0.00,VWS V14.01,2013-02-28 13:09:00,
2013-02-28 08:14:00,42.2,42.2,29.56,SSW,209,0.0,5.0,100,0.00,,---,0.00,VWS V14.01,2013-02-28 13:14:00,
2013-02-28 08:19:00,42.1,42.1,29.56,SSW,213,2.0,5.0,100,0.00,,---,0.00,VWS V14.01,2013-02-28 13:19:00,
2013-02-28 08:24:00,42.5,42.5,29.56,SSW,192,1.0,5.0,100,0.00,,---,0.00,VWS V14.01,2013-02-28 13:24:00,
2013-02-28 08:29:00,42.6,42.6,29.56,NNE,24,2.0,5.0,100,0.00,,---,0.00,VWS V14.01,2013-02-28 13:29:00,
2013-02-28 08:34:00,42.6,42.6,29.55,SSW,212,0.0,5.0,100,0.00,,---,0.00,VWS V14.01,2013-02-28 13:34:00,
2013-02-28 08:39:00,42.3,42.3,29.55,South,191,0.0,5.0,100,0.00,,---,0.00,VWS V14.01,2013-02-28 13:39:00,
2013-02-28 08:44:00,42.3,42.3,29.55,East,93,0.0,5.0,100,0.00,,---,0.00,VWS V14.01,2013-02-28 13:44:00,
2013-02-28 08:49:00,42.3,42.3,29.55,East,90,0.0,5.0,100,0.00,,---,0.00,VWS V14.01,2013-02-28 13:49:00,
2013-02-28 08:54:00,42.3,42.3,29.55,South,185,1.0,5.0,100,0.00,,---,0.00,VWS V14.01,2013-02-28 13:54:00,
2013-02-28 08:59:00,42.8,42.8,29.55,SSE,148,2.0,5.0,100,0.00,,---,0.00,VWS V14.01,2013-02-28 13:59:00,
2013-02-28 09:00:00,42.6,42.6,29.54,SSE,161,1.0,10.0,100,0.00,,---,-99.99,VWS V14.01,2013-02-28 14:00:00,
2013-02-28 09:04:00,42.5,42.5,29.55,SW,232,10.0,10.0,100,0.00,,---,0.00,VWS V14.01,2013-02-28 14:04:00,
2013-02-28 09:09:00,42.5,42.5,29.55,ENE,75,0.0,10.0,100,0.00,,---,0.00,VWS V14.01,2013-02-28 14:09:00,
2013-02-28 09:14:00,42.5,42.5,29.55,SW,219,0.0,10.0,100,0.00,,---,0.00,VWS V14.01,2013-02-28 14:14:00,
2013-02-28 09:19:00,42.5,42.5,29.55,South,186,0.0,10.0,100,0.00,,---,0.00,VWS V14.01,2013-02-28 14:19:00,
2013-02-28 09:24:00,42.5,42.5,29.55,SSW,202,1.0,10.0,100,0.00,,---,0.00,VWS V14.01,2013-02-28 14:24:00,
2013-02-28 09:30:00,42.9,42.9,29.55,NE,38,0.0,10.0,100,0.00,,---,0.00,VWS V14.01,2013-02-28 14:30:00,
2013-02-28 09:35:00,42.5,42.5,29.55,SE,137,0.0,10.0,100,0.00,,---,0.00,VWS V14.01,2013-02-28 14:35:00,
2013-02-28 09:40:00,42.5,42.5,29.55,East,79,0.0,10.0,100,0.00,,---,0.00,VWS V14.01,2013-02-28 14:40:00,
2013-02-28 09:45:00,42.5,42.5,29.54,WNW,291,0.0,10.0,100,0.00,,---,0.00,VWS V14.01,2013-02-28 14:45:00,
2013-02-28 09:50:00,42.6,42.6,29.54,SW,216,2.0,10.0,100,0.00,,---,0.00,VWS V14.01,2013-02-28 14:50:00,
2013-02-28 09:55:00,42.6,42.6,29.54,SW,229,0.0,10.0,100,0.00,,---,0.00,VWS V14.01,2013-02-28 14:55:00,
2013-02-28 10:00:00,42.6,42.6,29.54,SSE,161,1.0,10.0,100,0.00,,---,0.00,VWS V14.01,2013-02-28 15:00:00,
2013-02-28 10:05:00,42.8,42.8,29.54,ENE,72,1.0,2.0,100,0.00,,---,0.00,VWS V14.01,2013-02-28 15:05:00,
2013-02-28 10:10:00,42.8,42.8,29.54,WSW,239,0.0,2.0,100,0.00,,---,0.00,VWS V14.01,2013-02-28 15:10:00,
2013-02-28 10:15:00,42.8,42.8,29.54,SE,133,0.0,2.0,100,0.00,,---,0.00,VWS V14.01,2013-02-28 15:15:00,
2013-02-28 10:20:00,42.8,42.8,29.54,SSE,164,0.0,6.0,100,0.00,,---,0.00,VWS V14.01,2013-02-28 15:20:00,
2013-02-28 10:26:00,42.8,42.8,29.54,SE,136,3.0,6.0,100,0.00,,---,0.00,VWS V14.01,2013-02-28 15:26:00,
2013-02-28 10:31:00,42.8,42.8,29.54,SSW,198,5.0,6.0,100,0.00,,---,0.00,VWS V14.01,2013-02-28 15:31:00,
2013-02-28 10:36:00,43.1,43.1,29.54,SSW,202,0.0,6.0,100,0.00,,---,0.00,VWS V14.01,2013-02-28 15:36:00,
2013-02-28 10:41:00,43.1,43.1,29.54,SSW,202,0.0,6.0,100,0.00,,---,0.00,VWS V14.01,2013-02-28 15:41:00,
2013-02-28 10:46:00,43.1,43.1,29.54,SW,234,0.0,6.0,100,0.00,,---,0.00,VWS V14.01,2013-02-28 15:46:00,
2013-02-28 10:51:00,42.9,42.9,29.54,SW,223,2.0,6.0,100,0.00,,---,0.00,VWS V14.01,2013-02-28 15:51:00,
2013-02-28 10:56:00,42.9,42.9,29.54,SW,220,1.0,6.0,100,0.00,,---,0.00,VWS V14.01,2013-02-28 15:56:00,
2013-02-28 11:00:00,42.8,42.8,29.51,South,179,0.0,6.0,100,0.00,,---,-99.99,VWS V14.01,2013-02-28 16:00:00,
2013-02-28 11:01:00,43.2,43.2,29.54,NW,316,0.0,3.0,100,0.00,,---,0.00,VWS V14.01,2013-02-28 16:01:00,
2013-02-28 11:06:00,43.2,43.2,29.54,NW,316,0.0,3.0,100,0.00,,---,0.00,VWS V14.01,2013-02-28 16:06:00,
2013-02-28 11:11:00,42.8,42.8,29.54,WSW,246,0.0,3.0,100,0.00,,---,0.00,VWS V14.01,2013-02-28 16:11:00,
2013-02-28 11:16:00,43.1,43.1,29.54,SSW,198,0.0,3.0,100,0.00,,---,0.00,VWS V14.01,2013-02-28 16:16:00,
2013-02-28 11:21:00,43.1,43.1,29.54,SSW,213,1.0,3.0,100,0.00,,---,0.00,VWS V14.01,2013-02-28 16:21:00,
2013-02-28 11:27:00,43.1,43.1,29.54,East,95,0.0,3.0,100,0.00,,---,0.00,VWS V14.01,2013-02-28 16:27:00,
2013-02-28 11:31:00,43.1,43.1,29.53,East,86,0.0,3.0,100,0.00,,---,0.00,VWS V14.01,2013-02-28 16:31:00,
2013-02-28 11:37:00,43.1,43.1,29.53,SW,216,2.0,5.0,100,0.00,,---,0.00,VWS V14.01,2013-02-28 16:37:00,
2013-02-28 11:42:00,42.8,42.8,29.53,NNE,20,0.0,5.0,100,0.00,,---,0.00,VWS V14.01,2013-02-28 16:42:00,
2013-02-28 11:47:00,42.6,42.6,29.52,North,0,0.0,6.0,100,0.00,,---,0.00,VWS V14.01,2013-02-28 16:47:00,
2013-02-28 11:52:00,42.6,42.6,29.52,South,171,0.0,6.0,100,0.00,,---,0.00,VWS V14.01,2013-02-28 16:52:00,
2013-02-28 11:57:00,42.8,42.8,29.52,South,179,0.0,6.0,100,0.00,,---,0.00,VWS V14.01,2013-02-28 16:57:00,
2013-02-28 12:00:00,43.1,43.1,29.49,North,359,0.0,3.0,100,0.00,,---,-99.99,VWS V14.01,2013-02-28 17:00:00,
2013-02-28 12:03:00,42.8,42.8,29.51,South,179,0.0,0.0,100,0.00,,---,0.00,VWS V14.01,2013-02-28 17:03:00,
2013-02-28 12:08:00,42.8,42.8,29.51,ESE,121,2.0,2.0,100,0.00,,---,0.00,VWS V14.01,2013-02-28 17:08:00,
2013-02-28 12:13:00,43.1,43.1,29.51,South,185,0.0,2.0,100,0.00,,---,0.00,VWS V14.01,2013-02-28 17:13:00,
2013-02-28 12:18:00,43.1,43.1,29.50,SSW,202,0.0,2.0,100,0.00,,---,0.00,VWS V14.01,2013-02-28 17:18:00,
2013-02-28 12:23:00,43.1,43.1,29.50,NNE,32,2.0,2.0,100,0.00,,---,0.00,VWS V14.01,2013-02-28 17:23:00,
2013-02-28 12:28:00,43.3,43.3,29.50,ESE,117,0.0,2.0,100,0.00,,---,0.00,VWS V14.01,2013-02-28 17:28:00,
2013-02-28 12:33:00,43.3,43.3,29.50,ESE,109,1.0,2.0,100,0.00,,---,0.00,VWS V14.01,2013-02-28 17:33:00,
2013-02-28 12:38:00,43.2,43.2,29.50,WSW,254,1.0,2.0,100,0.00,,---,0.00,VWS V14.01,2013-02-28 17:38:00,
2013-02-28 12:43:00,43.5,43.5,29.50,WSW,241,0.0,2.0,100,0.00,,---,0.00,VWS V14.01,2013-02-28 17:43:00,
2013-02-28 12:48:00,43.1,43.1,29.49,WSW,248,0.0,3.0,100,0.00,,---,0.00,VWS V14.01,2013-02-28 17:48:00,
2013-02-28 12:54:00,43.1,43.1,29.49,SSE,152,1.0,3.0,100,0.00,,---,0.00,VWS V14.01,2013-02-28 17:54:00,
2013-02-28 12:59:00,43.1,43.1,29.49,SSW,196,0.0,3.0,100,0.00,,---,0.00,VWS V14.01,2013-02-28 17:59:00,
2013-02-28 13:00:00,43.1,43.1,29.47,ENE,64,0.0,2.0,100,0.00,,---,-99.99,VWS V14.01,2013-02-28 18:00:00,
2013-02-28 13:04:00,43.1,43.1,29.49,North,359,0.0,0.0,100,0.00,,---,0.00,VWS V14.01,2013-02-28 18:04:00,
2013-02-28 13:09:00,43.1,43.1,29.49,ENE,65,2.0,2.0,100,0.00,,---,0.00,VWS V14.01,2013-02-28 18:09:00,
2013-02-28 13:14:00,43.1,43.1,29.49,SW,229,0.0,2.0,100,0.00,,---,0.00,VWS V14.01,2013-02-28 18:14:00,
2013-02-28 13:19:00,42.9,42.9,29.48,SW,229,0.0,2.0,100,0.00,,---,0.00,VWS V14.01,2013-02-28 18:19:00,
2013-02-28 13:24:00,42.9,42.9,29.48,ENE,59,0.0,2.0,100,0.00,,---,0.00,VWS V14.01,2013-02-28 18:24:00,
2013-02-28 13:29:00,42.9,42.9,29.48,NNW,329,0.0,2.0,100,0.00,,---,0.00,VWS V14.01,2013-02-28 18:29:00,
2013-02-28 13:34:00,42.9,42.9,29.47,NW,322,0.0,2.0,100,0.00,,---,0.00,VWS V14.01,2013-02-28 18:34:00,
2013-02-28 13:39:00,43.2,43.2,29.47,SE,131,0.0,2.0,100,0.00,,---,0.00,VWS V14.01,2013-02-28 18:39:00,
2013-02-28 13:44:00,43.3,43.3,29.47,SE,133,0.0,2.0,100,0.00,,---,0.00,VWS V14.01,2013-02-28 18:44:00,
2013-02-28 13:49:00,43.3,43.3,29.47,SE,134,0.0,2.0,100,0.00,,---,0.00,VWS V14.01,2013-02-28 18:49:00,
2013-02-28 13:54:00,43.1,43.1,29.47,East,85,0.0,2.0,100,0.00,,---,0.00,VWS V14.01,2013-02-28 18:54:00,
2013-02-28 13:59:00,43.1,43.1,29.47,ENE,64,0.0,2.0,100,0.00,,---,0.00,VWS V14.01,2013-02-28 18:59:00,
2013-02-28 14:00:00,41.9,41.9,29.46,East,86,0.0,2.0,100,0.00,,---,-99.99,VWS V14.01,2013-02-28 19:00:00,
2013-02-28 14:04:00,43.1,43.1,29.47,ENE,64,0.0,0.0,100,0.00,,---,0.00,VWS V14.01,2013-02-28 19:04:00,
2013-02-28 14:09:00,42.9,42.9,29.47,NE,42,0.0,0.0,100,0.00,,---,0.00,VWS V14.01,2013-02-28 19:09:00,
2013-02-28 14:15:00,42.6,42.6,29.47,NE,47,0.0,0.0,100,0.00,,---,0.00,VWS V14.01,2013-02-28 19:15:00,
2013-02-28 14:20:00,42.6,42.6,29.47,NE,47,0.0,0.0,100,0.00,,---,0.00,VWS V14.01,2013-02-28 19:20:00,
2013-02-28 14:25:00,42.6,42.6,29.47,NE,52,0.0,2.0,100,0.00,,---,0.00,VWS V14.01,2013-02-28 19:25:00,
2013-02-28 14:30:00,42.2,42.2,29.47,ENE,59,0.0,2.0,100,0.00,,---,0.00,VWS V14.01,2013-02-28 19:30:00,
2013-02-28 14:35:00,42.2,42.2,29.47,ENE,59,0.0,2.0,100,0.00,,---,0.00,VWS V14.01,2013-02-28 19:35:00,
2013-02-28 14:40:00,41.9,41.9,29.47,ENE,59,0.0,2.0,100,0.00,,---,0.00,VWS V14.01,2013-02-28 19:40:00,
2013-02-28 14:45:00,41.9,41.9,29.46,ENE,59,0.0,2.0,100,0.00,,---,0.00,VWS V14.01,2013-02-28 19:45:00,
2013-02-28 14:50:00,42.1,42.1,29.46,ENE,66,0.0,2.0,100,0.00,,---,0.00,VWS V14.01,2013-02-28 19:50:00,
2013-02-28 14:55:00,42.1,42.1,29.46,SW,233,0.0,2.0,100,0.00,,---,0.00,VWS V14.01,2013-02-28 19:55:00,
2013-02-28 15:00:00,41.9,41.9,29.46,East,86,0.0,0.0,100,0.00,,---,0.00,VWS V14.01,2013-02-28 20:00:00,
2013-02-28 15:05:00,41.9,41.9,29.46,ENE,58,1.0,2.0,100,0.00,,---,0.00,VWS V14.01,2013-02-28 20:05:00,
2013-02-28 15:10:00,41.9,41.9,29.46,NNE,30,0.0,2.0,100,0.00,,---,0.00,VWS V14.01,2013-02-28 20:10:00,
2013-02-28 15:16:00,41.9,41.9,29.46,NE,48,0.0,2.0,100,0.00,,---,0.00,VWS V14.01,2013-02-28 20:16:00,
2013-02-28 15:21:00,41.9,41.9,29.46,NE,55,0.0,2.0,100,0.00,,---,0.00,VWS V14.01,2013-02-28 20:21:00,
2013-02-28 15:26:00,42.1,42.1,29.46,ENE,71,0.0,2.0,100,0.00,,---,0.00,VWS V14.01,2013-02-28 20:26:00,
2013-02-28 15:31:00,42.1,42.1,29.46,East,79,2.0,2.0,100,0.00,,---,0.00,VWS V14.01,2013-02-28 20:31:00,
2013-02-28 15:36:00,42.1,42.1,29.46,ENE,75,0.0,2.0,100,0.00,,---,0.00,VWS V14.01,2013-02-28 20:36:00,
2013-02-28 15:41:00,41.6,41.6,29.46,ENE,65,0.0,2.0,100,0.00,,---,0.00,VWS V14.01,2013-02-28 20:41:00,
2013-02-28 15:46:00,41.6,41.6,29.46,North,359,0.0,2.0,100,0.00,,---,0.00,VWS V14.01,2013-02-28 20:46:00,
2013-02-28 15:51:00,41.5,41.5,29.46,East,83,0.0,2.0,100,0.00,,---,0.00,VWS V14.01,2013-02-28 20:51:00,
2013-02-28 15:56:00,41.5,41.5,29.46,ENE,65,0.0,2.0,100,0.00,,---,0.00,VWS V14.01,2013-02-28 20:56:00,
2013-02-28 16:00:00,41.8,41.8,29.45,NE,42,0.0,5.0,100,0.00,,---,-99.99,VWS V14.01,2013-02-28 21:00:00,
2013-02-28 16:01:00,41.5,41.5,29.45,ENE,58,5.0,5.0,100,0.00,,---,0.00,VWS V14.01,2013-02-28 21:01:00,
2013-02-28 16:06:00,41.5,41.5,29.45,East,93,0.0,5.0,100,0.00,,---,0.00,VWS V14.01,2013-02-28 21:06:00,
2013-02-28 16:12:00,41.3,41.3,29.45,NW,326,0.0,5.0,100,0.00,,---,0.00,VWS V14.01,2013-02-28 21:12:00,
2013-02-28 16:17:00,41.3,41.3,29.45,NNE,20,0.0,5.0,100,0.00,,---,0.00,VWS V14.01,2013-02-28 21:17:00,
2013-02-28 16:22:00,41.3,41.3,29.45,SSE,168,2.0,5.0,100,0.00,,---,0.00,VWS V14.01,2013-02-28 21:22:00,
2013-02-28 16:27:00,41.8,41.8,29.45,NE,42,0.0,5.0,100,0.00,,---,0.00,VWS V14.01,2013-02-28 21:27:00,
2013-02-28 16:32:00,41.8,41.8,29.45,NE,34,0.0,5.0,100,0.00,,---,0.00,VWS V14.01,2013-02-28 21:32:00,
2013-02-28 16:37:00,41.8,41.8,29.45,NE,34,0.0,5.0,100,0.00,,---,0.00,VWS V14.01,2013-02-28 21:37:00,
2013-02-28 16:42:00,41.8,41.8,29.45,NE,54,0.0,5.0,100,0.00,,---,0.00,VWS V14.01,2013-02-28 21:42:00,
2013-02-28 16:48:00,41.8,41.8,29.45,NNE,18,0.0,5.0,100,0.00,,---,0.00,VWS V14.01,2013-02-28 21:48:00,
2013-02-28 16:53:00,41.8,41.8,29.45,NNE,18,0.0,5.0,100,0.00,,---,0.00,VWS V14.01,2013-02-28 21:53:00,
2013-02-28 16:58:00,41.8,41.8,29.45,NE,55,0.0,5.0,100,0.00,,---,0.00,VWS V14.01,2013-02-28 21:58:00,
2013-02-28 17:00:00,39.5,39.5,29.45,NE,54,0.0,1.0,100,0.00,,---,-99.99,VWS V14.01,2013-02-28 22:00:00,
2013-02-28 17:03:00,41.8,41.8,29.45,NE,42,0.0,0.0,100,0.00,,---,0.00,VWS V14.01,2013-02-28 22:03:00,
2013-02-28 17:08:00,41.8,41.8,29.45,NNE,31,0.0,0.0,100,0.00,,---,0.00,VWS V14.01,2013-02-28 22:08:00,
2013-02-28 17:13:00,41.8,41.8,29.45,NE,48,0.0,0.0,100,0.00,,---,0.00,VWS V14.01,2013-02-28 22:13:00,
2013-02-28 17:18:00,41.1,41.1,29.45,NNE,17,0.0,0.0,100,0.00,,---,0.00,VWS V14.01,2013-02-28 22:18:00,
2013-02-28 17:23:00,41.1,41.1,29.45,NE,45,0.0,1.0,100,0.00,,---,0.00,VWS V14.01,2013-02-28 22:23:00,
2013-02-28 17:28:00,41.3,41.3,29.45,NE,45,0.0,1.0,100,0.00,,---,0.00,VWS V14.01,2013-02-28 22:28:00,
2013-02-28 17:33:00,40.6,40.6,29.45,ENE,61,0.0,1.0,100,0.00,,---,0.00,VWS V14.01,2013-02-28 22:33:00,
2013-02-28 17:38:00,40.8,40.8,29.45,NE,35,0.0,1.0,100,0.00,,---,0.00,VWS V14.01,2013-02-28 22:38:00,
2013-02-28 17:43:00,40.8,40.8,29.45,ENE,73,0.0,1.0,100,0.00,,---,0.00,VWS V14.01,2013-02-28 22:43:00,
2013-02-28 17:48:00,39.9,39.9,29.45,NE,37,0.0,1.0,100,0.00,,---,0.00,VWS V14.01,2013-02-28 22:48:00,
2013-02-28 17:54:00,39.8,39.8,29.45,WNW,285,0.0,1.0,100,0.00,,---,0.00,VWS V14.01,2013-02-28 22:54:00,
2013-02-28 17:59:00,39.5,39.5,29.45,NE,54,0.0,1.0,100,0.00,,---,0.00,VWS V14.01,2013-02-28 22:59:00,
2013-02-28 18:00:00,37.6,37.6,29.45,ESE,110,0.0,7.0,100,0.00,,---,-99.99,VWS V14.01,2013-02-28 23:00:00,
2013-02-28 18:04:00,39.3,39.3,29.45,ENE,64,2.0,2.0,100,0.00,,---,0.00,VWS V14.01,2013-02-28 23:04:00,
2013-02-28 18:09:00,39.3,39.3,29.45,ENE,64,2.0,2.0,100,0.00,,---,0.00,VWS V14.01,2013-02-28 23:09:00,
2013-02-28 18:14:00,39.2,39.2,29.45,ENE,62,1.0,5.0,100,0.00,,---,0.00,VWS V14.01,2013-02-28 23:14:00,
2013-02-28 18:19:00,39.2,39.2,29.45,East,93,5.0,5.0,100,0.00,,---,0.00,VWS V14.01,2013-02-28 23:19:00,
2013-02-28 18:24:00,39.2,39.2,29.45,North,6,0.0,5.0,100,0.00,,---,0.00,VWS V14.01,2013-02-28 23:24:00,
2013-02-28 18:29:00,38.2,38.2,29.45,NE,38,0.0,5.0,100,0.00,,---,0.00,VWS V14.01,2013-02-28 23:29:00,
2013-02-28 18:34:00,38.0,38.0,29.45,WNW,301,7.0,7.0,100,0.00,,---,0.00,VWS V14.01,2013-02-28 23:34:00,
2013-02-28 18:39:00,38.0,38.0,29.45,NNE,27,0.0,7.0,100,0.00,,---,0.00,VWS V14.01,2013-02-28 23:39:00,
2013-02-28 18:44:00,38.0,38.0,29.45,NNE,25,0.0,7.0,100,0.00,,---,0.00,VWS V14.01,2013-02-28 23:44:00,
2013-02-28 18:49:00,38.0,38.0,29.45,NE,49,0.0,7.0,100,0.00,,---,0.00,VWS V14.01,2013-02-28 23:49:00,
2013-02-28 18:55:00,37.5,37.5,29.45,NE,44,0.0,7.0,100,0.00,,---,0.00,VWS V14.01,2013-02-28 23:55:00,
2013-02-28 19:00:00,37.6,37.6,29.45,ESE,110,0.0,7.0,100,0.00,,---,0.00,VWS V14.01,2013-03-01 00:00:00,
2013-02-28 19:05:00,37.2,37.2,29.45,NNE,31,0.0,0.0,100,0.00,,---,0.00,VWS V14.01,2013-03-01 00:05:00,
2013-02-28 19:10:00,37.2,37.2,29.45,ENE,68,0.0,0.0,100,0.00,,---,0.00,VWS V14.01,2013-03-01 00:10:00,
2013-02-28 19:15:00,37.2,37.2,29.45,ENE,68,0.0,0.0,100,0.00,,---,0.00,VWS V14.01,2013-03-01 00:15:00,
2013-02-28 19:20:00,37.0,37.0,29.45,ENE,64,0.0,1.0,100,0.00,,---,0.00,VWS V14.01,2013-03-01 00:20:00,
2013-02-28 19:25:00,37.2,37.2,29.45,ENE,58,3.0,3.0,100,0.00,,---,0.00,VWS V14.01,2013-03-01 00:25:00,
2013-02-28 19:30:00,37.0,37.0,29.46,SE,140,0.0,3.0,100,0.00,,---,0.00,VWS V14.01,2013-03-01 00:30:00,
2013-02-28 19:35:00,37.3,37.3,29.46,NE,38,1.0,3.0,100,0.00,,---,0.00,VWS V14.01,2013-03-01 00:35:00,
2013-02-28 19:40:00,37.3,37.3,29.46,WSW,253,0.0,3.0,100,0.00,,---,0.00,VWS V14.01,2013-03-01 00:40:00,
2013-02-28 19:45:00,37.3,37.3,29.46,NNW,347,0.0,3.0,100,0.00,,---,0.00,VWS V14.01,2013-03-01 00:45:00,
2013-02-28 19:51:00,37.0,37.0,29.46,SE,143,1.0,3.0,100,0.00,,---,0.00,VWS V14.01,2013-03-01 00:51:00,
2013-02-28 19:56:00,37.0,37.0,29.46,NE,54,0.0,3.0,100,0.00,,---,0.00,VWS V14.01,2013-03-01 00:56:00,
2013-02-28 20:00:00,36.8,36.8,29.45,NNE,23,0.0,3.0,100,0.00,,---,-99.99,VWS V14.01,2013-03-01 01:00:00,
2013-02-28 20:01:00,37.0,37.0,29.45,NNE,28,1.0,1.0,100,0.00,,---,0.00,VWS V14.01,2013-03-01 01:01:00,
2013-02-28 20:06:00,37.0,37.0,29.45,NE,52,0.0,1.0,100,0.00,,---,0.00,VWS V14.01,2013-03-01 01:06:00,
2013-02-28 20:11:00,37.0,37.0,29.45,ESE,106,1.0,1.0,100,0.00,,---,0.00,VWS V14.01,2013-03-01 01:11:00,
2013-02-28 20:16:00,36.9,36.9,29.45,ESE,104,0.0,1.0,100,0.00,,---,0.00,VWS V14.01,2013-03-01 01:16:00,
2013-02-28 20:21:00,37.0,37.0,29.45,North,8,0.0,1.0,100,0.00,,---,0.00,VWS V14.01,2013-03-01 01:21:00,
2013-02-28 20:26:00,37.3,37.3,29.45,North,0,3.0,3.0,100,0.00,,---,0.00,VWS V14.01,2013-03-01 01:26:00,
2013-02-28 20:31:00,36.9,36.9,29.45,North,354,0.0,3.0,100,0.00,,---,0.00,VWS V14.01,2013-03-01 01:31:00,
2013-02-28 20:36:00,36.9,36.9,29.45,NNE,16,0.0,3.0,100,0.00,,---,0.00,VWS V14.01,2013-03-01 01:36:00,
2013-02-28 20:42:00,36.8,36.8,29.45,NNE,20,0.0,3.0,100,0.00,,---,0.00,VWS V14.01,2013-03-01 01:42:00,
2013-02-28 20:47:00,36.8,36.8,29.45,North,0,0.0,3.0,100,0.00,,---,0.00,VWS V14.01,2013-03-01 01:47:00,
2013-02-28 20:52:00,36.8,36.8,29.45,East,79,0.0,3.0,100,0.00,,---,0.00,VWS V14.01,2013-03-01 01:52:00,
2013-02-28 20:57:00,36.8,36.8,29.45,North,0,0.0,3.0,100,0.00,,---,0.00,VWS V14.01,2013-03-01 01:57:00,
2013-02-28 21:00:00,36.6,36.6,29.44,North,0,0.0,5.0,100,0.00,,---,-99.99,VWS V14.01,2013-03-01 02:00:00,
2013-02-28 21:02:00,37.0,37.0,29.45,NNE,23,0.0,0.0,100,0.00,,---,0.00,VWS V14.01,2013-03-01 02:02:00,
2013-02-28 21:07:00,37.0,37.0,29.45,NE,40,0.0,0.0,100,0.00,,---,0.00,VWS V14.01,2013-03-01 02:07:00,
2013-02-28 21:12:00,36.8,36.8,29.45,NE,34,0.0,0.0,100,0.00,,---,0.00,VWS V14.01,2013-03-01 02:12:00,
2013-02-28 21:17:00,37.0,37.0,29.44,North,7,0.0,0.0,100,0.00,,---,0.00,VWS V14.01,2013-03-01 02:17:00,
2013-02-28 21:23:00,36.8,36.8,29.44,North,1,5.0,5.0,100,0.00,,---,0.00,VWS V14.01,2013-03-01 02:23:00,
2013-02-28 21:28:00,36.8,36.8,29.44,North,10,0.0,5.0,100,0.00,,---,0.00,VWS V14.01,2013-03-01 02:28:00,
2013-02-28 21:33:00,36.6,36.6,29.44,North,10,0.0,5.0,100,0.00,,---,0.00,VWS V14.01,2013-03-01 02:33:00,
2013-02-28 21:38:00,36.6,36.6,29.44,North,354,0.0,5.0,100,0.00,,---,0.00,VWS V14.01,2013-03-01 02:38:00,
2013-02-28 21:43:00,36.6,36.6,29.44,North,0,0.0,5.0,100,0.00,,---,0.00,VWS V14.01,2013-03-01 02:43:00,
2013-02-28 21:48:00,36.6,36.6,29.44,North,0,2.0,5.0,100,0.00,,---,0.00,VWS V14.01,2013-03-01 02:48:00,
2013-02-28 21:53:00,36.6,36.6,29.44,North,354,0.0,5.0,100,0.00,,---,0.00,VWS V14.01,2013-03-01 02:53:00,
2013-02-28 21:58:00,36.6,36.6,29.44,North,350,0.0,5.0,100,0.00,,---,0.00,VWS V14.01,2013-03-01 02:58:00,
2013-02-28 22:00:00,36.5,36.5,29.42,North,0,0.0,3.0,100,0.00,,---,-99.99,VWS V14.01,2013-03-01 03:00:00,
2013-02-28 22:03:00,36.6,36.6,29.44,North,359,1.0,1.0,100,0.00,,---,0.00,VWS V14.01,2013-03-01 03:03:00,
2013-02-28 22:08:00,36.6,36.6,29.44,North,4,0.0,1.0,100,0.00,,---,0.00,VWS V14.01,2013-03-01 03:08:00,
2013-02-28 22:13:00,36.6,36.6,29.44,North,8,0.0,1.0,100,0.00,,---,0.00,VWS V14.01,2013-03-01 03:13:00,
2013-02-28 22:18:00,36.6,36.6,29.43,North,0,0.0,1.0,100,0.00,,---,0.00,VWS V14.01,2013-03-01 03:18:00,
2013-02-28 22:23:00,36.5,36.5,29.43,North,357,1.0,1.0,100,0.00,,---,0.00,VWS V14.01,2013-03-01 03:23:00,
2013-02-28 22:28:00,36.3,36.3,29.43,NNW,347,0.0,1.0,100,0.00,,---,0.00,VWS V14.01,2013-03-01 03:28:00,
2013-02-28 22:34:00,36.3,36.3,29.43,NE,38,0.0,1.0,100,0.00,,---,0.00,VWS V14.01,2013-03-01 03:34:00,
2013-02-28 22:39:00,36.3,36.3,29.43,NNE,14,2.0,3.0,100,0.00,,---,0.00,VWS V14.01,2013-03-01 03:39:00,
2013-02-28 22:44:00,36.3,36.3,29.43,NNE,21,1.0,3.0,100,0.00,,---,0.00,VWS V14.01,2013-03-01 03:44:00,
2013-02-28 22:49:00,36.3,36.3,29.42,North,1,1.0,3.0,100,0.00,,---,0.00,VWS V14.01,2013-03-01 03:49:00,
2013-02-28 22:54:00,36.5,36.5,29.42,NNE,16,0.0,3.0,100,0.00,,---,0.00,VWS V14.01,2013-03-01 03:54:00,
2013-02-28 22:59:00,36.5,36.5,29.42,North,0,0.0,3.0,100,0.00,,---,0.00,VWS V14.01,2013-03-01 03:59:00,
2013-02-28 23:00:00,36.3,36.3,29.42,North,357,0.0,6.0,100,0.00,,---,-99.99,VWS V14.01,2013-03-01 04:00:00,
2013-02-28 23:04:00,36.5,36.5,29.42,NE,42,0.0,0.0,100,0.00,,---,0.00,VWS V14.01,2013-03-01 04:04:00,
2013-02-28 23:09:00,36.5,36.5,29.42,North,354,0.0,2.0,100,0.00,,---,0.00,VWS V14.01,2013-03-01 04:09:00,
2013-02-28 23:14:00,36.3,36.3,29.42,North,0,0.0,2.0,100,0.00,,---,0.00,VWS V14.01,2013-03-01 04:14:00,
2013-02-28 23:19:00,36.3,36.3,29.42,North,1,0.0,3.0,100,0.00,,---,0.00,VWS V14.01,2013-03-01 04:19:00,
2013-02-28 23:24:00,36.3,36.3,29.42,North,0,0.0,3.0,100,0.00,,---,0.00,VWS V14.01,2013-03-01 04:24:00,
2013-02-28 23:30:00,36.3,36.3,29.42,North,349,1.0,3.0,100,0.00,,---,0.00,VWS V14.01,2013-03-01 04:30:00,
2013-02-28 23:35:00,36.3,36.3,29.42,North,353,0.0,3.0,100,0.00,,---,0.00,VWS V14.01,2013-03-01 04:35:00,
2013-02-28 23:40:00,36.3,36.3,29.42,NE,38,2.0,3.0,100,0.00,,---,0.00,VWS V14.01,2013-03-01 04:40:00,
2013-02-28 23:45:00,36.3,36.3,29.42,North,0,0.0,3.0,100,0.00,,---,0.00,VWS V14.01,2013-03-01 04:45:00,
2013-02-28 23:50:00,36.5,36.5,29.42,North,0,0.0,3.0,100,0.00,,---,0.00,VWS V14.01,2013-03-01 04:50:00,
2013-02-28 23:55:00,36.3,36.3,29.42,North,7,6.0,6.0,100,0.00,,---,0.00,VWS V14.01,2013-03-01 04:55:00,